sensor_id;sensor_type;location;lat;lon;timestamp;P1;durP1;ratioP1;P2;durP2;ratioP2
84808;SDS011;75044;53.126;18.008;2024-01-30T00:00:57;30.40;;;18.60;;
84808;SDS011;75044;53.126;18.008;2024-01-30T00:02:20;32.80;;;24.20;;
84808;SDS011;75044;53.126;18.008;2024-01-30T00:03:24;29.60;;;19.30;;
84808;SDS011;75044;53.126;18.008;2024-01-30T00:04:27;30.20;;;19.30;;
84808;SDS011;75044;53.126;18.008;2024-01-30T00:05:31;31.20;;;18.90;;
84808;SDS011;75044;53.126;18.008;2024-01-30T00:06:36;26.70;;;18.70;;
84808;SDS011;75044;53.126;18.008;2024-01-30T00:07:40;30.00;;;20.50;;
84808;SDS011;75044;53.126;18.008;2024-01-30T00:08:43;29.90;;;21.30;;
84808;SDS011;75044;53.126;18.008;2024-01-30T00:09:50;31.10;;;21.20;;
84808;SDS011;75044;53.126;18.008;2024-01-30T00:10:53;28.80;;;18.70;;
84808;SDS011;75044;53.126;18.008;2024-01-30T00:11:56;32.10;;;21.40;;
84808;SDS011;75044;53.126;18.008;2024-01-30T00:13:00;30.00;;;17.10;;
84808;SDS011;75044;53.126;18.008;2024-01-30T00:15:07;29.50;;;22.90;;
84808;SDS011;75044;53.126;18.008;2024-01-30T00:16:22;27.40;;;15.30;;
84808;SDS011;75044;53.126;18.008;2024-01-30T00:17:29;32.40;;;21.80;;
84808;SDS011;75044;53.126;18.008;2024-01-30T00:18:32;25.80;;;20.10;;
84808;SDS011;75044;53.126;18.008;2024-01-30T00:19:36;29.60;;;21.60;;
84808;SDS011;75044;53.126;18.008;2024-01-30T00:20:51;31.60;;;21.40;;
84808;SDS011;75044;53.126;18.008;2024-01-30T00:21:54;29.70;;;19.00;;
84808;SDS011;75044;53.126;18.008;2024-01-30T00:24:01;38.30;;;24.80;;
84808;SDS011;75044;53.126;18.008;2024-01-30T00:25:04;45.10;;;29.20;;
84808;SDS011;75044;53.126;18.008;2024-01-30T00:26:08;43.40;;;34.70;;
84808;SDS011;75044;53.126;18.008;2024-01-30T00:27:11;43.50;;;28.10;;
84808;SDS011;75044;53.126;18.008;2024-01-30T00:28:14;40.30;;;31.30;;
84808;SDS011;75044;53.126;18.008;2024-01-30T00:29:18;29.90;;;20.10;;
84808;SDS011;75044;53.126;18.008;2024-01-30T00:30:22;34.20;;;22.00;;
84808;SDS011;75044;53.126;18.008;2024-01-30T00:31:25;32.10;;;26.40;;
84808;SDS011;75044;53.126;18.008;2024-01-30T00:32:29;38.90;;;26.20;;
84808;SDS011;75044;53.126;18.008;2024-01-30T00:33:32;32.60;;;22.90;;
84808;SDS011;75044;53.126;18.008;2024-01-30T00:34:36;33.60;;;20.40;;
84808;SDS011;75044;53.126;18.008;2024-01-30T00:35:39;29.10;;;21.60;;
84808;SDS011;75044;53.126;18.008;2024-01-30T00:36:42;30.80;;;19.60;;
84808;SDS011;75044;53.126;18.008;2024-01-30T00:37:45;28.30;;;19.10;;
84808;SDS011;75044;53.126;18.008;2024-01-30T00:38:49;32.60;;;23.30;;
84808;SDS011;75044;53.126;18.008;2024-01-30T00:39:52;32.80;;;27.70;;
84808;SDS011;75044;53.126;18.008;2024-01-30T00:40:55;27.50;;;20.00;;
84808;SDS011;75044;53.126;18.008;2024-01-30T00:41:58;27.50;;;20.00;;
84808;SDS011;75044;53.126;18.008;2024-01-30T00:43:02;29.70;;;17.00;;
84808;SDS011;75044;53.126;18.008;2024-01-30T00:44:05;29.40;;;23.60;;
84808;SDS011;75044;53.126;18.008;2024-01-30T00:45:15;26.70;;;21.00;;
84808;SDS011;75044;53.126;18.008;2024-01-30T00:46:19;27.70;;;18.00;;
84808;SDS011;75044;53.126;18.008;2024-01-30T00:48:25;26.50;;;16.90;;
84808;SDS011;75044;53.126;18.008;2024-01-30T00:49:29;30.10;;;24.10;;
84808;SDS011;75044;53.126;18.008;2024-01-30T00:50:32;27.90;;;19.20;;
84808;SDS011;75044;53.126;18.008;2024-01-30T00:51:36;28.20;;;19.00;;
84808;SDS011;75044;53.126;18.008;2024-01-30T00:52:39;26.60;;;22.20;;
84808;SDS011;75044;53.126;18.008;2024-01-30T00:53:44;28.40;;;22.20;;
84808;SDS011;75044;53.126;18.008;2024-01-30T00:54:48;29.00;;;19.00;;
84808;SDS011;75044;53.126;18.008;2024-01-30T00:55:51;34.60;;;25.60;;
84808;SDS011;75044;53.126;18.008;2024-01-30T00:56:55;30.40;;;22.60;;
84808;SDS011;75044;53.126;18.008;2024-01-30T00:57:58;30.90;;;22.70;;
84808;SDS011;75044;53.126;18.008;2024-01-30T00:59:02;32.60;;;23.50;;
84808;SDS011;75044;53.126;18.008;2024-01-30T01:00:05;32.70;;;23.90;;
84808;SDS011;75044;53.126;18.008;2024-01-30T01:01:11;25.10;;;22.20;;
84808;SDS011;75044;53.126;18.008;2024-01-30T01:02:15;32.80;;;24.40;;
84808;SDS011;75044;53.126;18.008;2024-01-30T01:03:20;31.00;;;20.50;;
84808;SDS011;75044;53.126;18.008;2024-01-30T01:04:24;31.10;;;23.20;;
84808;SDS011;75044;53.126;18.008;2024-01-30T01:05:28;39.90;;;27.10;;
84808;SDS011;75044;53.126;18.008;2024-01-30T01:06:31;39.10;;;24.40;;
84808;SDS011;75044;53.126;18.008;2024-01-30T01:07:35;31.10;;;24.30;;
84808;SDS011;75044;53.126;18.008;2024-01-30T01:08:38;41.30;;;27.40;;
84808;SDS011;75044;53.126;18.008;2024-01-30T01:10:45;48.10;;;31.70;;
84808;SDS011;75044;53.126;18.008;2024-01-30T01:11:48;47.70;;;27.90;;
84808;SDS011;75044;53.126;18.008;2024-01-30T01:12:52;40.90;;;24.70;;
84808;SDS011;75044;53.126;18.008;2024-01-30T01:13:55;33.70;;;21.70;;
84808;SDS011;75044;53.126;18.008;2024-01-30T01:14:58;42.70;;;23.00;;
84808;SDS011;75044;53.126;18.008;2024-01-30T01:16:02;34.50;;;21.30;;
84808;SDS011;75044;53.126;18.008;2024-01-30T01:17:07;40.20;;;24.30;;
84808;SDS011;75044;53.126;18.008;2024-01-30T01:18:10;41.40;;;29.40;;
84808;SDS011;75044;53.126;18.008;2024-01-30T01:19:13;59.60;;;30.60;;
84808;SDS011;75044;53.126;18.008;2024-01-30T01:21:20;47.30;;;28.90;;
84808;SDS011;75044;53.126;18.008;2024-01-30T01:22:23;41.40;;;25.90;;
84808;SDS011;75044;53.126;18.008;2024-01-30T01:23:26;41.10;;;27.50;;
84808;SDS011;75044;53.126;18.008;2024-01-30T01:24:31;48.30;;;26.30;;
84808;SDS011;75044;53.126;18.008;2024-01-30T01:25:35;48.40;;;29.30;;
84808;SDS011;75044;53.126;18.008;2024-01-30T01:26:38;52.90;;;30.60;;
84808;SDS011;75044;53.126;18.008;2024-01-30T01:27:41;40.70;;;23.60;;
84808;SDS011;75044;53.126;18.008;2024-01-30T01:28:45;39.00;;;28.60;;
84808;SDS011;75044;53.126;18.008;2024-01-30T01:29:49;26.10;;;16.00;;
84808;SDS011;75044;53.126;18.008;2024-01-30T01:30:52;27.80;;;17.70;;
84808;SDS011;75044;53.126;18.008;2024-01-30T01:31:55;32.80;;;23.80;;
84808;SDS011;75044;53.126;18.008;2024-01-30T01:34:05;38.20;;;26.50;;
84808;SDS011;75044;53.126;18.008;2024-01-30T01:35:09;32.90;;;19.40;;
84808;SDS011;75044;53.126;18.008;2024-01-30T01:37:16;31.40;;;21.20;;
84808;SDS011;75044;53.126;18.008;2024-01-30T01:38:19;30.00;;;23.40;;
84808;SDS011;75044;53.126;18.008;2024-01-30T01:39:23;33.90;;;23.90;;
84808;SDS011;75044;53.126;18.008;2024-01-30T01:40:27;33.20;;;18.30;;
84808;SDS011;75044;53.126;18.008;2024-01-30T01:41:33;26.40;;;17.50;;
84808;SDS011;75044;53.126;18.008;2024-01-30T01:42:36;27.40;;;15.70;;
84808;SDS011;75044;53.126;18.008;2024-01-30T01:43:42;23.50;;;13.50;;
84808;SDS011;75044;53.126;18.008;2024-01-30T01:44:45;24.50;;;18.90;;
84808;SDS011;75044;53.126;18.008;2024-01-30T01:45:49;27.20;;;18.50;;
84808;SDS011;75044;53.126;18.008;2024-01-30T01:46:52;29.80;;;17.60;;
84808;SDS011;75044;53.126;18.008;2024-01-30T01:47:57;22.80;;;14.40;;
84808;SDS011;75044;53.126;18.008;2024-01-30T01:49:02;26.10;;;17.20;;
84808;SDS011;75044;53.126;18.008;2024-01-30T01:50:09;30.10;;;20.70;;
84808;SDS011;75044;53.126;18.008;2024-01-30T01:51:12;22.40;;;14.30;;
84808;SDS011;75044;53.126;18.008;2024-01-30T01:52:15;21.20;;;14.00;;
84808;SDS011;75044;53.126;18.008;2024-01-30T01:53:20;22.70;;;15.00;;
84808;SDS011;75044;53.126;18.008;2024-01-30T01:54:24;26.40;;;15.50;;
84808;SDS011;75044;53.126;18.008;2024-01-30T01:55:29;27.40;;;18.30;;
84808;SDS011;75044;53.126;18.008;2024-01-30T01:56:34;20.90;;;14.20;;
84808;SDS011;75044;53.126;18.008;2024-01-30T01:57:38;25.80;;;15.50;;
84808;SDS011;75044;53.126;18.008;2024-01-30T01:58:41;23.30;;;14.80;;
84808;SDS011;75044;53.126;18.008;2024-01-30T01:59:47;25.10;;;15.60;;
84808;SDS011;75044;53.126;18.008;2024-01-30T02:00:50;25.90;;;17.50;;
84808;SDS011;75044;53.126;18.008;2024-01-30T02:01:55;22.90;;;15.70;;
84808;SDS011;75044;53.126;18.008;2024-01-30T02:02:58;24.60;;;19.60;;
84808;SDS011;75044;53.126;18.008;2024-01-30T02:04:03;26.20;;;19.10;;
84808;SDS011;75044;53.126;18.008;2024-01-30T02:05:07;24.70;;;15.40;;
84808;SDS011;75044;53.126;18.008;2024-01-30T02:06:11;23.20;;;15.50;;
84808;SDS011;75044;53.126;18.008;2024-01-30T02:07:18;26.50;;;14.00;;
84808;SDS011;75044;53.126;18.008;2024-01-30T02:08:23;30.70;;;16.10;;
84808;SDS011;75044;53.126;18.008;2024-01-30T02:09:27;22.10;;;15.50;;
84808;SDS011;75044;53.126;18.008;2024-01-30T02:10:30;25.10;;;17.20;;
84808;SDS011;75044;53.126;18.008;2024-01-30T02:11:33;24.50;;;15.80;;
84808;SDS011;75044;53.126;18.008;2024-01-30T02:12:37;27.30;;;16.70;;
84808;SDS011;75044;53.126;18.008;2024-01-30T02:13:41;29.70;;;16.10;;
84808;SDS011;75044;53.126;18.008;2024-01-30T02:15:49;26.60;;;14.90;;
84808;SDS011;75044;53.126;18.008;2024-01-30T02:16:54;25.30;;;15.00;;
84808;SDS011;75044;53.126;18.008;2024-01-30T02:17:57;26.30;;;18.50;;
84808;SDS011;75044;53.126;18.008;2024-01-30T02:19:00;26.00;;;18.10;;
84808;SDS011;75044;53.126;18.008;2024-01-30T02:20:03;29.70;;;19.70;;
84808;SDS011;75044;53.126;18.008;2024-01-30T02:21:08;28.70;;;16.80;;
84808;SDS011;75044;53.126;18.008;2024-01-30T02:22:11;27.20;;;15.70;;
84808;SDS011;75044;53.126;18.008;2024-01-30T02:23:16;24.50;;;16.50;;
84808;SDS011;75044;53.126;18.008;2024-01-30T02:24:19;23.20;;;16.00;;
84808;SDS011;75044;53.126;18.008;2024-01-30T02:25:44;27.30;;;15.10;;
84808;SDS011;75044;53.126;18.008;2024-01-30T02:26:49;27.70;;;17.00;;
84808;SDS011;75044;53.126;18.008;2024-01-30T02:27:52;30.60;;;18.80;;
84808;SDS011;75044;53.126;18.008;2024-01-30T02:29:59;30.10;;;17.00;;
84808;SDS011;75044;53.126;18.008;2024-01-30T02:31:03;29.70;;;18.60;;
84808;SDS011;75044;53.126;18.008;2024-01-30T02:32:07;31.40;;;18.90;;
84808;SDS011;75044;53.126;18.008;2024-01-30T02:33:10;25.20;;;16.80;;
84808;SDS011;75044;53.126;18.008;2024-01-30T02:35:17;30.80;;;17.50;;
84808;SDS011;75044;53.126;18.008;2024-01-30T02:36:20;29.50;;;21.40;;
84808;SDS011;75044;53.126;18.008;2024-01-30T02:37:23;24.40;;;15.50;;
84808;SDS011;75044;53.126;18.008;2024-01-30T02:38:28;26.50;;;15.40;;
84808;SDS011;75044;53.126;18.008;2024-01-30T02:39:31;27.00;;;21.60;;
84808;SDS011;75044;53.126;18.008;2024-01-30T02:40:35;26.70;;;20.50;;
84808;SDS011;75044;53.126;18.008;2024-01-30T02:41:39;23.70;;;14.70;;
84808;SDS011;75044;53.126;18.008;2024-01-30T02:42:42;24.70;;;16.10;;
84808;SDS011;75044;53.126;18.008;2024-01-30T02:43:48;25.70;;;19.20;;
84808;SDS011;75044;53.126;18.008;2024-01-30T02:44:52;31.80;;;19.90;;
84808;SDS011;75044;53.126;18.008;2024-01-30T02:47:02;26.80;;;16.30;;
84808;SDS011;75044;53.126;18.008;2024-01-30T02:48:05;27.00;;;17.80;;
84808;SDS011;75044;53.126;18.008;2024-01-30T02:49:09;31.30;;;17.70;;
84808;SDS011;75044;53.126;18.008;2024-01-30T02:50:13;27.30;;;17.00;;
84808;SDS011;75044;53.126;18.008;2024-01-30T02:51:17;28.00;;;20.10;;
84808;SDS011;75044;53.126;18.008;2024-01-30T02:52:21;28.30;;;25.00;;
84808;SDS011;75044;53.126;18.008;2024-01-30T02:53:25;25.90;;;15.90;;
84808;SDS011;75044;53.126;18.008;2024-01-30T02:55:33;22.30;;;15.30;;
84808;SDS011;75044;53.126;18.008;2024-01-30T02:56:36;30.20;;;20.50;;
84808;SDS011;75044;53.126;18.008;2024-01-30T02:57:39;28.70;;;19.00;;
84808;SDS011;75044;53.126;18.008;2024-01-30T02:58:43;28.80;;;21.80;;
84808;SDS011;75044;53.126;18.008;2024-01-30T02:59:46;26.70;;;16.90;;
84808;SDS011;75044;53.126;18.008;2024-01-30T03:00:50;31.80;;;19.70;;
84808;SDS011;75044;53.126;18.008;2024-01-30T03:01:53;26.70;;;16.60;;
84808;SDS011;75044;53.126;18.008;2024-01-30T03:02:57;24.90;;;20.50;;
84808;SDS011;75044;53.126;18.008;2024-01-30T03:04:00;26.10;;;17.70;;
84808;SDS011;75044;53.126;18.008;2024-01-30T03:05:05;26.90;;;16.00;;
84808;SDS011;75044;53.126;18.008;2024-01-30T03:06:09;28.10;;;15.40;;
84808;SDS011;75044;53.126;18.008;2024-01-30T03:07:12;25.70;;;22.30;;
84808;SDS011;75044;53.126;18.008;2024-01-30T03:08:15;28.60;;;21.10;;
84808;SDS011;75044;53.126;18.008;2024-01-30T03:10:22;26.10;;;17.00;;
84808;SDS011;75044;53.126;18.008;2024-01-30T03:12:29;26.80;;;16.20;;
84808;SDS011;75044;53.126;18.008;2024-01-30T03:13:32;32.20;;;19.80;;
84808;SDS011;75044;53.126;18.008;2024-01-30T03:15:39;22.90;;;20.00;;
84808;SDS011;75044;53.126;18.008;2024-01-30T03:16:43;27.50;;;16.80;;
84808;SDS011;75044;53.126;18.008;2024-01-30T03:18:49;31.00;;;16.90;;
84808;SDS011;75044;53.126;18.008;2024-01-30T03:19:53;25.20;;;19.60;;
84808;SDS011;75044;53.126;18.008;2024-01-30T03:21:59;32.60;;;20.60;;
84808;SDS011;75044;53.126;18.008;2024-01-30T03:23:03;26.10;;;18.10;;
84808;SDS011;75044;53.126;18.008;2024-01-30T03:24:07;32.80;;;23.10;;
84808;SDS011;75044;53.126;18.008;2024-01-30T03:25:10;31.30;;;22.00;;
84808;SDS011;75044;53.126;18.008;2024-01-30T03:26:14;25.80;;;20.10;;
84808;SDS011;75044;53.126;18.008;2024-01-30T03:27:18;28.60;;;19.90;;
84808;SDS011;75044;53.126;18.008;2024-01-30T03:28:21;24.30;;;15.90;;
84808;SDS011;75044;53.126;18.008;2024-01-30T03:29:24;28.50;;;21.00;;
84808;SDS011;75044;53.126;18.008;2024-01-30T03:30:27;27.90;;;16.50;;
84808;SDS011;75044;53.126;18.008;2024-01-30T03:31:31;25.00;;;20.50;;
84808;SDS011;75044;53.126;18.008;2024-01-30T03:32:34;26.00;;;19.20;;
84808;SDS011;75044;53.126;18.008;2024-01-30T03:33:37;26.20;;;21.40;;
84808;SDS011;75044;53.126;18.008;2024-01-30T03:34:41;27.30;;;16.50;;
84808;SDS011;75044;53.126;18.008;2024-01-30T03:35:44;26.00;;;21.40;;
84808;SDS011;75044;53.126;18.008;2024-01-30T03:36:48;28.60;;;20.40;;
84808;SDS011;75044;53.126;18.008;2024-01-30T03:37:53;26.50;;;16.10;;
84808;SDS011;75044;53.126;18.008;2024-01-30T03:38:56;27.50;;;18.10;;
84808;SDS011;75044;53.126;18.008;2024-01-30T03:39:59;27.40;;;19.10;;
84808;SDS011;75044;53.126;18.008;2024-01-30T03:41:03;29.40;;;22.10;;
84808;SDS011;75044;53.126;18.008;2024-01-30T03:42:06;28.80;;;21.40;;
84808;SDS011;75044;53.126;18.008;2024-01-30T03:43:10;29.40;;;20.50;;
84808;SDS011;75044;53.126;18.008;2024-01-30T03:44:13;31.30;;;19.60;;
84808;SDS011;75044;53.126;18.008;2024-01-30T03:46:22;29.90;;;15.80;;
84808;SDS011;75044;53.126;18.008;2024-01-30T03:47:25;29.10;;;17.30;;
84808;SDS011;75044;53.126;18.008;2024-01-30T03:49:32;29.50;;;15.90;;
84808;SDS011;75044;53.126;18.008;2024-01-30T03:50:36;28.10;;;16.40;;
84808;SDS011;75044;53.126;18.008;2024-01-30T03:51:39;28.80;;;17.20;;
84808;SDS011;75044;53.126;18.008;2024-01-30T03:52:43;30.20;;;18.70;;
84808;SDS011;75044;53.126;18.008;2024-01-30T03:53:46;27.00;;;21.00;;
84808;SDS011;75044;53.126;18.008;2024-01-30T03:54:50;24.10;;;15.80;;
84808;SDS011;75044;53.126;18.008;2024-01-30T03:55:53;29.10;;;19.10;;
84808;SDS011;75044;53.126;18.008;2024-01-30T03:56:58;26.70;;;21.20;;
84808;SDS011;75044;53.126;18.008;2024-01-30T03:59:05;24.00;;;16.40;;
84808;SDS011;75044;53.126;18.008;2024-01-30T04:00:09;26.90;;;17.30;;
84808;SDS011;75044;53.126;18.008;2024-01-30T04:01:15;26.40;;;22.30;;
84808;SDS011;75044;53.126;18.008;2024-01-30T04:02:19;29.30;;;17.90;;
84808;SDS011;75044;53.126;18.008;2024-01-30T04:03:23;28.20;;;24.60;;
84808;SDS011;75044;53.126;18.008;2024-01-30T04:04:27;26.20;;;22.30;;
84808;SDS011;75044;53.126;18.008;2024-01-30T04:05:30;28.00;;;17.80;;
84808;SDS011;75044;53.126;18.008;2024-01-30T04:06:35;25.40;;;17.40;;
84808;SDS011;75044;53.126;18.008;2024-01-30T04:07:41;28.90;;;19.00;;
84808;SDS011;75044;53.126;18.008;2024-01-30T04:09:47;26.80;;;16.50;;
84808;SDS011;75044;53.126;18.008;2024-01-30T04:10:51;26.90;;;21.00;;
84808;SDS011;75044;53.126;18.008;2024-01-30T04:11:54;31.70;;;17.50;;
84808;SDS011;75044;53.126;18.008;2024-01-30T04:12:57;28.60;;;17.70;;
84808;SDS011;75044;53.126;18.008;2024-01-30T04:14:00;25.20;;;16.60;;
84808;SDS011;75044;53.126;18.008;2024-01-30T04:15:04;31.60;;;21.60;;
84808;SDS011;75044;53.126;18.008;2024-01-30T04:16:07;27.70;;;20.10;;
84808;SDS011;75044;53.126;18.008;2024-01-30T04:17:10;25.90;;;17.80;;
84808;SDS011;75044;53.126;18.008;2024-01-30T04:18:14;25.40;;;21.40;;
84808;SDS011;75044;53.126;18.008;2024-01-30T04:19:17;27.50;;;17.00;;
84808;SDS011;75044;53.126;18.008;2024-01-30T04:20:20;25.60;;;19.80;;
84808;SDS011;75044;53.126;18.008;2024-01-30T04:21:23;28.30;;;17.50;;
84808;SDS011;75044;53.126;18.008;2024-01-30T04:22:27;28.80;;;15.80;;
84808;SDS011;75044;53.126;18.008;2024-01-30T04:23:32;28.50;;;18.90;;
84808;SDS011;75044;53.126;18.008;2024-01-30T04:24:36;33.50;;;18.20;;
84808;SDS011;75044;53.126;18.008;2024-01-30T04:25:39;27.60;;;21.80;;
84808;SDS011;75044;53.126;18.008;2024-01-30T04:26:43;25.20;;;20.40;;
84808;SDS011;75044;53.126;18.008;2024-01-30T04:27:46;24.30;;;19.00;;
84808;SDS011;75044;53.126;18.008;2024-01-30T04:29:53;29.40;;;19.30;;
84808;SDS011;75044;53.126;18.008;2024-01-30T04:30:57;23.80;;;19.60;;
84808;SDS011;75044;53.126;18.008;2024-01-30T04:32:01;28.30;;;22.00;;
84808;SDS011;75044;53.126;18.008;2024-01-30T04:33:04;31.60;;;22.50;;
84808;SDS011;75044;53.126;18.008;2024-01-30T04:34:07;30.10;;;17.50;;
84808;SDS011;75044;53.126;18.008;2024-01-30T04:36:14;28.40;;;17.00;;
84808;SDS011;75044;53.126;18.008;2024-01-30T04:37:19;27.80;;;23.90;;
84808;SDS011;75044;53.126;18.008;2024-01-30T04:38:22;31.00;;;20.10;;
84808;SDS011;75044;53.126;18.008;2024-01-30T04:39:25;33.80;;;23.70;;
84808;SDS011;75044;53.126;18.008;2024-01-30T04:40:29;27.00;;;21.40;;
84808;SDS011;75044;53.126;18.008;2024-01-30T04:42:37;25.00;;;17.70;;
84808;SDS011;75044;53.126;18.008;2024-01-30T04:44:45;28.30;;;17.60;;
84808;SDS011;75044;53.126;18.008;2024-01-30T04:45:49;27.90;;;19.50;;
84808;SDS011;75044;53.126;18.008;2024-01-30T04:46:53;29.40;;;20.00;;
84808;SDS011;75044;53.126;18.008;2024-01-30T04:47:56;27.80;;;18.70;;
84808;SDS011;75044;53.126;18.008;2024-01-30T04:49:00;29.70;;;16.30;;
84808;SDS011;75044;53.126;18.008;2024-01-30T04:51:07;27.90;;;15.90;;
84808;SDS011;75044;53.126;18.008;2024-01-30T04:52:10;28.20;;;19.90;;
84808;SDS011;75044;53.126;18.008;2024-01-30T04:53:16;25.90;;;17.50;;
84808;SDS011;75044;53.126;18.008;2024-01-30T04:54:19;25.40;;;17.00;;
84808;SDS011;75044;53.126;18.008;2024-01-30T04:56:27;31.40;;;21.50;;
84808;SDS011;75044;53.126;18.008;2024-01-30T04:58:35;27.40;;;21.50;;
84808;SDS011;75044;53.126;18.008;2024-01-30T04:59:39;26.50;;;16.70;;
84808;SDS011;75044;53.126;18.008;2024-01-30T05:00:42;30.40;;;18.30;;
84808;SDS011;75044;53.126;18.008;2024-01-30T05:02:51;25.70;;;20.50;;
84808;SDS011;75044;53.126;18.008;2024-01-30T05:03:54;24.50;;;16.50;;
84808;SDS011;75044;53.126;18.008;2024-01-30T05:06:01;29.80;;;22.70;;
84808;SDS011;75044;53.126;18.008;2024-01-30T05:07:05;32.20;;;23.20;;
84808;SDS011;75044;53.126;18.008;2024-01-30T05:08:08;29.90;;;23.00;;
84808;SDS011;75044;53.126;18.008;2024-01-30T05:10:15;27.40;;;19.70;;
84808;SDS011;75044;53.126;18.008;2024-01-30T05:11:18;26.30;;;21.40;;
84808;SDS011;75044;53.126;18.008;2024-01-30T05:12:22;24.40;;;16.90;;
84808;SDS011;75044;53.126;18.008;2024-01-30T05:13:25;31.40;;;16.70;;
84808;SDS011;75044;53.126;18.008;2024-01-30T05:15:32;25.20;;;16.10;;
84808;SDS011;75044;53.126;18.008;2024-01-30T05:16:35;24.20;;;20.40;;
84808;SDS011;75044;53.126;18.008;2024-01-30T05:17:39;28.30;;;25.10;;
84808;SDS011;75044;53.126;18.008;2024-01-30T05:18:43;28.30;;;18.30;;
84808;SDS011;75044;53.126;18.008;2024-01-30T05:19:46;30.40;;;24.40;;
84808;SDS011;75044;53.126;18.008;2024-01-30T05:20:50;34.10;;;22.00;;
84808;SDS011;75044;53.126;18.008;2024-01-30T05:21:55;31.00;;;20.50;;
84808;SDS011;75044;53.126;18.008;2024-01-30T05:22:58;34.60;;;27.30;;
84808;SDS011;75044;53.126;18.008;2024-01-30T05:24:02;36.30;;;24.60;;
84808;SDS011;75044;53.126;18.008;2024-01-30T05:25:05;36.60;;;27.50;;
84808;SDS011;75044;53.126;18.008;2024-01-30T05:26:08;34.20;;;27.80;;
84808;SDS011;75044;53.126;18.008;2024-01-30T05:28:17;36.70;;;26.60;;
84808;SDS011;75044;53.126;18.008;2024-01-30T05:30:25;34.00;;;27.10;;
84808;SDS011;75044;53.126;18.008;2024-01-30T05:31:28;28.60;;;20.00;;
84808;SDS011;75044;53.126;18.008;2024-01-30T05:32:32;31.30;;;20.60;;
84808;SDS011;75044;53.126;18.008;2024-01-30T05:33:35;38.50;;;23.50;;
84808;SDS011;75044;53.126;18.008;2024-01-30T05:34:39;39.00;;;22.50;;
84808;SDS011;75044;53.126;18.008;2024-01-30T05:35:42;29.10;;;20.60;;
84808;SDS011;75044;53.126;18.008;2024-01-30T05:36:46;39.40;;;21.30;;
84808;SDS011;75044;53.126;18.008;2024-01-30T05:37:49;35.70;;;24.90;;
84808;SDS011;75044;53.126;18.008;2024-01-30T05:38:53;32.40;;;20.50;;
84808;SDS011;75044;53.126;18.008;2024-01-30T05:39:56;32.80;;;26.40;;
84808;SDS011;75044;53.126;18.008;2024-01-30T05:41:00;49.60;;;27.30;;
84808;SDS011;75044;53.126;18.008;2024-01-30T05:43:07;95.10;;;40.50;;
84808;SDS011;75044;53.126;18.008;2024-01-30T05:44:11;88.80;;;44.20;;
84808;SDS011;75044;53.126;18.008;2024-01-30T05:45:15;60.90;;;34.30;;
84808;SDS011;75044;53.126;18.008;2024-01-30T05:46:18;39.60;;;26.00;;
84808;SDS011;75044;53.126;18.008;2024-01-30T05:47:21;37.50;;;27.60;;
84808;SDS011;75044;53.126;18.008;2024-01-30T05:48:24;34.80;;;26.20;;
84808;SDS011;75044;53.126;18.008;2024-01-30T05:49:28;28.50;;;18.30;;
84808;SDS011;75044;53.126;18.008;2024-01-30T05:50:32;27.50;;;17.10;;
84808;SDS011;75044;53.126;18.008;2024-01-30T05:51:36;32.90;;;17.30;;
84808;SDS011;75044;53.126;18.008;2024-01-30T05:52:39;29.30;;;24.10;;
84808;SDS011;75044;53.126;18.008;2024-01-30T05:53:43;27.50;;;23.40;;
84808;SDS011;75044;53.126;18.008;2024-01-30T05:55:50;26.90;;;20.50;;
84808;SDS011;75044;53.126;18.008;2024-01-30T05:56:53;27.90;;;21.00;;
84808;SDS011;75044;53.126;18.008;2024-01-30T05:57:58;24.90;;;15.60;;
84808;SDS011;75044;53.126;18.008;2024-01-30T05:59:01;22.90;;;20.10;;
84808;SDS011;75044;53.126;18.008;2024-01-30T06:00:06;30.60;;;21.60;;
84808;SDS011;75044;53.126;18.008;2024-01-30T06:01:10;21.20;;;17.50;;
84808;SDS011;75044;53.126;18.008;2024-01-30T06:02:14;23.70;;;17.50;;
84808;SDS011;75044;53.126;18.008;2024-01-30T06:03:17;23.40;;;16.70;;
84808;SDS011;75044;53.126;18.008;2024-01-30T06:05:24;20.50;;;13.60;;
84808;SDS011;75044;53.126;18.008;2024-01-30T06:06:27;20.70;;;15.40;;
84808;SDS011;75044;53.126;18.008;2024-01-30T06:07:31;23.60;;;19.40;;
84808;SDS011;75044;53.126;18.008;2024-01-30T06:08:34;25.60;;;16.60;;
84808;SDS011;75044;53.126;18.008;2024-01-30T06:09:37;26.70;;;21.60;;
84808;SDS011;75044;53.126;18.008;2024-01-30T06:10:42;23.40;;;16.40;;
84808;SDS011;75044;53.126;18.008;2024-01-30T06:12:49;30.60;;;18.00;;
84808;SDS011;75044;53.126;18.008;2024-01-30T06:13:52;25.30;;;21.00;;
84808;SDS011;75044;53.126;18.008;2024-01-30T06:14:55;28.30;;;22.40;;
84808;SDS011;75044;53.126;18.008;2024-01-30T06:16:00;20.50;;;16.50;;
84808;SDS011;75044;53.126;18.008;2024-01-30T06:17:03;26.70;;;21.60;;
84808;SDS011;75044;53.126;18.008;2024-01-30T06:18:11;23.20;;;15.80;;
84808;SDS011;75044;53.126;18.008;2024-01-30T06:20:17;24.20;;;15.60;;
84808;SDS011;75044;53.126;18.008;2024-01-30T06:22:24;26.60;;;17.30;;
84808;SDS011;75044;53.126;18.008;2024-01-30T06:23:28;25.80;;;20.30;;
84808;SDS011;75044;53.126;18.008;2024-01-30T06:24:31;28.10;;;20.50;;
84808;SDS011;75044;53.126;18.008;2024-01-30T06:25:35;22.60;;;16.40;;
84808;SDS011;75044;53.126;18.008;2024-01-30T06:26:39;28.90;;;16.80;;
84808;SDS011;75044;53.126;18.008;2024-01-30T06:27:43;26.50;;;16.90;;
84808;SDS011;75044;53.126;18.008;2024-01-30T06:28:46;28.20;;;18.30;;
84808;SDS011;75044;53.126;18.008;2024-01-30T06:29:50;29.00;;;19.90;;
84808;SDS011;75044;53.126;18.008;2024-01-30T06:30:54;21.80;;;15.80;;
84808;SDS011;75044;53.126;18.008;2024-01-30T06:31:57;26.60;;;21.90;;
84808;SDS011;75044;53.126;18.008;2024-01-30T06:33:00;27.10;;;23.10;;
84808;SDS011;75044;53.126;18.008;2024-01-30T06:34:04;24.00;;;18.60;;
84808;SDS011;75044;53.126;18.008;2024-01-30T06:35:07;26.20;;;19.00;;
84808;SDS011;75044;53.126;18.008;2024-01-30T06:36:11;22.80;;;16.70;;
84808;SDS011;75044;53.126;18.008;2024-01-30T06:37:14;26.90;;;21.90;;
84808;SDS011;75044;53.126;18.008;2024-01-30T06:38:18;27.70;;;21.70;;
84808;SDS011;75044;53.126;18.008;2024-01-30T06:39:21;23.60;;;21.00;;
84808;SDS011;75044;53.126;18.008;2024-01-30T06:40:24;30.10;;;18.70;;
84808;SDS011;75044;53.126;18.008;2024-01-30T06:41:28;27.70;;;18.90;;
84808;SDS011;75044;53.126;18.008;2024-01-30T06:42:31;29.60;;;19.90;;
84808;SDS011;75044;53.126;18.008;2024-01-30T06:43:34;28.20;;;21.60;;
84808;SDS011;75044;53.126;18.008;2024-01-30T06:44:37;50.20;;;31.20;;
84808;SDS011;75044;53.126;18.008;2024-01-30T06:45:41;42.20;;;29.70;;
84808;SDS011;75044;53.126;18.008;2024-01-30T06:46:45;30.30;;;21.00;;
84808;SDS011;75044;53.126;18.008;2024-01-30T06:47:49;32.00;;;21.60;;
84808;SDS011;75044;53.126;18.008;2024-01-30T06:48:52;31.10;;;21.90;;
84808;SDS011;75044;53.126;18.008;2024-01-30T06:49:56;32.30;;;26.50;;
84808;SDS011;75044;53.126;18.008;2024-01-30T06:50:59;21.20;;;16.50;;